WAT2067 LGAV-LWSK
Flight info
| Callsign | WAT2067 |
|---|---|
| Flight time | 0h 54m |
| Altitude | 28000 |
| Route | KRO UT162 NEVRA UT514 TSL UN130 TALAS DCT PEP |
| Aircraft | B738/M-SDE2E3FGHIRWXY/LB1 |
Departure
| Time | 2026-04-20 02:53 |
|---|---|
| Airport | Athens Eleftherios Venizelos International Airport (LGAV) |
Arrival
| Time | 2026-04-20 03:47 |
|---|---|
| Airport | Skopje International Airport (LWSK) |
| Time | Latitude | Longitude | Altitude | Speed | Heading |
|---|---|---|---|---|---|
| 2026-04-20 02:18 | 37.93651 | 23.94887 | 299 ft | 0 kts | 306° |
| 2026-04-20 02:37 | 37.93649 | 23.94889 | 300 ft | 3 kts | 306° |
| 2026-04-20 02:37 | 37.93634 | 23.94918 | 301 ft | 4 kts | 298° |
| 2026-04-20 02:37 | 37.93623 | 23.94949 | 302 ft | 4 kts | 282° |
| 2026-04-20 02:38 | 37.93623 | 23.94979 | 300 ft | 4 kts | 232° |
| 2026-04-20 02:38 | 37.93627 | 23.94986 | 299 ft | 1 kts | 217° |
| 2026-04-20 02:42 | 37.93611 | 23.94971 | 303 ft | 8 kts | 217° |
| 2026-04-20 02:42 | 37.93562 | 23.94924 | 300 ft | 9 kts | 217° |
| 2026-04-20 02:42 | 37.93513 | 23.94878 | 300 ft | 9 kts | 217° |
| 2026-04-20 02:43 | 37.93465 | 23.94833 | 301 ft | 8 kts | 217° |
| 2026-04-20 02:43 | 37.93419 | 23.94790 | 301 ft | 8 kts | 217° |
| 2026-04-20 02:43 | 37.93375 | 23.94747 | 300 ft | 8 kts | 217° |
| 2026-04-20 02:43 | 37.93332 | 23.94706 | 300 ft | 8 kts | 217° |
| 2026-04-20 02:44 | 37.93290 | 23.94667 | 302 ft | 7 kts | 217° |
| 2026-04-20 02:44 | 37.93244 | 23.94622 | 301 ft | 12 kts | 218° |
| 2026-04-20 02:44 | 37.93171 | 23.94549 | 302 ft | 14 kts | 230° |
| 2026-04-20 02:44 | 37.93188 | 23.94443 | 302 ft | 13 kts | 306° |
| 2026-04-20 02:45 | 37.93243 | 23.94354 | 300 ft | 13 kts | 308° |
| 2026-04-20 02:45 | 37.93282 | 23.94259 | 302 ft | 12 kts | 268° |
| 2026-04-20 02:45 | 37.93228 | 23.94180 | 302 ft | 12 kts | 215° |
| 2026-04-20 02:45 | 37.93161 | 23.94119 | 301 ft | 12 kts | 215° |
| 2026-04-20 02:46 | 37.93098 | 23.94055 | 300 ft | 11 kts | 231° |
| 2026-04-20 02:46 | 37.93116 | 23.93962 | 301 ft | 11 kts | 306° |
| 2026-04-20 02:46 | 37.93164 | 23.93886 | 300 ft | 11 kts | 309° |
| 2026-04-20 02:46 | 37.93213 | 23.93805 | 300 ft | 12 kts | 307° |
| 2026-04-20 02:47 | 37.93263 | 23.93720 | 300 ft | 12 kts | 307° |
| 2026-04-20 02:47 | 37.93313 | 23.93637 | 302 ft | 12 kts | 307° |
| 2026-04-20 02:47 | 37.93360 | 23.93557 | 299 ft | 11 kts | 304° |
| 2026-04-20 02:47 | 37.93358 | 23.93466 | 300 ft | 11 kts | 230° |
| 2026-04-20 02:48 | 37.93296 | 23.93405 | 300 ft | 12 kts | 216° |
| 2026-04-20 02:48 | 37.93230 | 23.93341 | 299 ft | 12 kts | 218° |
| 2026-04-20 02:48 | 37.93165 | 23.93279 | 301 ft | 11 kts | 217° |
| 2026-04-20 02:48 | 37.93102 | 23.93219 | 300 ft | 11 kts | 217° |
| 2026-04-20 02:49 | 37.93041 | 23.93161 | 302 ft | 11 kts | 217° |
| 2026-04-20 02:49 | 37.92973 | 23.93097 | 302 ft | 12 kts | 217° |
| 2026-04-20 02:49 | 37.92906 | 23.93034 | 301 ft | 12 kts | 217° |
| 2026-04-20 02:49 | 37.92833 | 23.92964 | 302 ft | 17 kts | 217° |
| 2026-04-20 02:50 | 37.92732 | 23.92868 | 301 ft | 18 kts | 216° |
| 2026-04-20 02:50 | 37.92634 | 23.92775 | 303 ft | 17 kts | 216° |
| 2026-04-20 02:50 | 37.92540 | 23.92686 | 303 ft | 17 kts | 217° |
| 2026-04-20 02:50 | 37.92449 | 23.92600 | 301 ft | 16 kts | 217° |
| 2026-04-20 02:51 | 37.92357 | 23.92513 | 301 ft | 18 kts | 217° |
| 2026-04-20 02:51 | 37.92260 | 23.92420 | 302 ft | 17 kts | 217° |
| 2026-04-20 02:51 | 37.92170 | 23.92334 | 303 ft | 15 kts | 217° |
| 2026-04-20 02:51 | 37.92088 | 23.92258 | 300 ft | 14 kts | 215° |
| 2026-04-20 02:52 | 37.92060 | 23.92155 | 304 ft | 13 kts | 298° |
| 2026-04-20 02:52 | 37.92104 | 23.92084 | 301 ft | 9 kts | 305° |
| 2026-04-20 02:52 | 37.92143 | 23.92017 | 303 ft | 9 kts | 306° |
| 2026-04-20 02:52 | 37.92187 | 23.91961 | 303 ft | 9 kts | 329° |
| 2026-04-20 02:53 | 37.92245 | 23.91984 | 302 ft | 14 kts | 34° |
| 2026-04-20 02:53 | 37.92572 | 23.92291 | 304 ft | 102 kts | 37° |
| 2026-04-20 02:53 | 37.93348 | 23.93027 | 357 ft | 169 kts | 37° |
| 2026-04-20 02:53 | 37.94345 | 23.93957 | 1121 ft | 183 kts | 35° |
| 2026-04-20 02:54 | 37.95241 | 23.95209 | 2054 ft | 197 kts | 56° |
| 2026-04-20 02:54 | 37.96244 | 23.96566 | 2480 ft | 225 kts | 36° |
| 2026-04-20 02:54 | 37.97529 | 23.97831 | 2930 ft | 241 kts | 37° |
| 2026-04-20 02:54 | 37.98849 | 23.99187 | 3743 ft | 245 kts | 38° |
| 2026-04-20 02:55 | 38.00158 | 24.00566 | 4705 ft | 245 kts | 38° |
| 2026-04-20 02:55 | 38.01469 | 24.01970 | 5594 ft | 248 kts | 39° |
| 2026-04-20 02:55 | 38.02786 | 24.03394 | 6461 ft | 250 kts | 39° |
| 2026-04-20 02:55 | 38.04115 | 24.04841 | 7272 ft | 254 kts | 39° |
| 2026-04-20 02:56 | 38.05458 | 24.06310 | 8090 ft | 256 kts | 39° |
| 2026-04-20 02:56 | 38.06813 | 24.07795 | 8997 ft | 256 kts | 39° |
| 2026-04-20 02:56 | 38.08157 | 24.09285 | 9865 ft | 259 kts | 43° |
| 2026-04-20 02:56 | 38.09117 | 24.11234 | 10528 ft | 269 kts | 72° |
| 2026-04-20 02:57 | 38.09214 | 24.13672 | 10912 ft | 293 kts | 100° |
| 2026-04-20 02:57 | 38.08601 | 24.16246 | 11299 ft | 312 kts | 107° |
| 2026-04-20 02:57 | 38.07858 | 24.18942 | 11514 ft | 336 kts | 108° |
| 2026-04-20 02:57 | 38.07040 | 24.21829 | 11695 ft | 359 kts | 108° |
| 2026-04-20 02:58 | 38.06170 | 24.24905 | 11866 ft | 381 kts | 108° |
| 2026-04-20 02:58 | 38.05281 | 24.28090 | 12239 ft | 394 kts | 108° |
| 2026-04-20 02:58 | 38.04358 | 24.31431 | 12571 ft | 408 kts | 108° |
| 2026-04-20 02:58 | 38.03407 | 24.34902 | 13125 ft | 414 kts | 108° |
| 2026-04-20 02:59 | 38.02471 | 24.38329 | 13751 ft | 418 kts | 107° |
| 2026-04-20 02:59 | 38.01950 | 24.41959 | 14252 ft | 422 kts | 87° |
| 2026-04-20 02:59 | 38.02492 | 24.45588 | 14859 ft | 420 kts | 68° |
| 2026-04-20 02:59 | 38.03917 | 24.48858 | 15480 ft | 419 kts | 50° |
| 2026-04-20 03:00 | 38.05980 | 24.51388 | 16016 ft | 419 kts | 33° |
| 2026-04-20 03:00 | 38.08560 | 24.53078 | 16522 ft | 419 kts | 16° |
| 2026-04-20 03:00 | 38.11409 | 24.54093 | 17068 ft | 422 kts | 13° |
| 2026-04-20 03:00 | 38.14216 | 24.55056 | 17582 ft | 426 kts | 12° |
| 2026-04-20 03:01 | 38.17128 | 24.55774 | 18101 ft | 427 kts | 4° |
| 2026-04-20 03:01 | 38.20101 | 24.55879 | 18590 ft | 428 kts | 354° |
| 2026-04-20 03:01 | 38.23074 | 24.55601 | 19093 ft | 429 kts | 353° |
| 2026-04-20 03:01 | 38.26053 | 24.55308 | 19600 ft | 431 kts | 353° |
| 2026-04-20 03:02 | 38.29051 | 24.55031 | 20082 ft | 433 kts | 354° |
| 2026-04-20 03:02 | 38.32068 | 24.54771 | 20552 ft | 435 kts | 354° |
| 2026-04-20 03:02 | 38.35100 | 24.54524 | 21012 ft | 437 kts | 354° |
| 2026-04-20 03:02 | 38.38144 | 24.54281 | 21467 ft | 439 kts | 354° |
| 2026-04-20 03:03 | 38.41198 | 24.54036 | 21904 ft | 441 kts | 354° |
| 2026-04-20 03:03 | 38.44271 | 24.53785 | 22326 ft | 443 kts | 354° |
| 2026-04-20 03:03 | 38.46312 | 24.53609 | 22603 ft | 445 kts | 354° |
| 2026-04-20 03:03 | 38.49406 | 24.53333 | 23014 ft | 447 kts | 354° |
| 2026-04-20 03:04 | 38.52516 | 24.53054 | 23425 ft | 448 kts | 354° |
| 2026-04-20 03:04 | 38.55643 | 24.52774 | 23774 ft | 451 kts | 354° |
| 2026-04-20 03:04 | 38.58784 | 24.52495 | 24072 ft | 453 kts | 354° |
| 2026-04-20 03:04 | 38.61931 | 24.52218 | 24380 ft | 455 kts | 354° |
| 2026-04-20 03:05 | 38.65099 | 24.51947 | 24680 ft | 457 kts | 354° |
| 2026-04-20 03:05 | 38.68281 | 24.51680 | 24972 ft | 459 kts | 354° |
| 2026-04-20 03:05 | 38.71482 | 24.51412 | 25280 ft | 461 kts | 354° |
| 2026-04-20 03:05 | 38.74679 | 24.51145 | 25665 ft | 460 kts | 354° |
| 2026-04-20 03:06 | 38.77864 | 24.50879 | 26119 ft | 457 kts | 354° |
| 2026-04-20 03:06 | 38.81035 | 24.50612 | 26544 ft | 456 kts | 354° |
| 2026-04-20 03:06 | 38.84169 | 24.50347 | 26922 ft | 456 kts | 354° |
| 2026-04-20 03:06 | 38.87334 | 24.50079 | 27337 ft | 456 kts | 354° |
| 2026-04-20 03:07 | 38.90497 | 24.49811 | 27800 ft | 454 kts | 354° |
| 2026-04-20 03:07 | 38.93651 | 24.49492 | 28037 ft | 455 kts | 349° |
| 2026-04-20 03:07 | 38.96660 | 24.48362 | 28068 ft | 449 kts | 333° |
| 2026-04-20 03:07 | 38.99332 | 24.46316 | 28052 ft | 447 kts | 321° |
| 2026-04-20 03:08 | 39.01565 | 24.43558 | 28062 ft | 445 kts | 309° |
| 2026-04-20 03:08 | 39.05459 | 24.37365 | 28062 ft | 445 kts | 309° |
| 2026-04-20 03:09 | 39.09395 | 24.31193 | 28040 ft | 445 kts | 309° |
| 2026-04-20 03:09 | 39.13356 | 24.25055 | 28036 ft | 445 kts | 309° |
| 2026-04-20 03:10 | 39.17318 | 24.18926 | 28047 ft | 445 kts | 309° |
| 2026-04-20 03:10 | 39.21276 | 24.12786 | 28041 ft | 445 kts | 309° |
| 2026-04-20 03:11 | 39.25224 | 24.06647 | 28043 ft | 445 kts | 309° |
| 2026-04-20 03:11 | 39.29211 | 24.00537 | 28038 ft | 445 kts | 313° |
| 2026-04-20 03:12 | 39.34030 | 23.95627 | 28043 ft | 446 kts | 326° |
| 2026-04-20 03:12 | 39.39248 | 23.91292 | 28040 ft | 446 kts | 326° |
| 2026-04-20 03:13 | 39.44486 | 23.86906 | 28039 ft | 446 kts | 326° |
| 2026-04-20 03:13 | 39.49653 | 23.82559 | 28034 ft | 445 kts | 326° |
| 2026-04-20 03:14 | 39.54825 | 23.78131 | 28030 ft | 445 kts | 326° |
| 2026-04-20 03:14 | 39.59990 | 23.73692 | 28034 ft | 446 kts | 325° |
| 2026-04-20 03:15 | 39.65161 | 23.69252 | 28031 ft | 446 kts | 325° |
| 2026-04-20 03:15 | 39.70325 | 23.64801 | 28036 ft | 446 kts | 325° |
| 2026-04-20 03:16 | 39.75499 | 23.60336 | 28038 ft | 446 kts | 325° |
| 2026-04-20 03:16 | 39.80677 | 23.55882 | 28039 ft | 447 kts | 325° |
| 2026-04-20 03:17 | 39.85859 | 23.51416 | 28039 ft | 447 kts | 325° |
| 2026-04-20 03:17 | 39.91039 | 23.46939 | 28034 ft | 448 kts | 325° |
| 2026-04-20 03:18 | 39.96224 | 23.42448 | 28031 ft | 446 kts | 325° |
| 2026-04-20 03:18 | 40.01394 | 23.37964 | 28034 ft | 446 kts | 325° |
| 2026-04-20 03:19 | 40.06557 | 23.33479 | 28037 ft | 446 kts | 325° |
| 2026-04-20 03:19 | 40.11734 | 23.28973 | 28037 ft | 448 kts | 325° |
| 2026-04-20 03:20 | 40.16914 | 23.24456 | 28033 ft | 447 kts | 325° |
| 2026-04-20 03:20 | 40.22080 | 23.19927 | 28047 ft | 447 kts | 325° |
| 2026-04-20 03:21 | 40.27243 | 23.15389 | 28043 ft | 446 kts | 325° |
| 2026-04-20 03:21 | 40.32364 | 23.10879 | 28044 ft | 446 kts | 325° |
| 2026-04-20 03:22 | 40.37519 | 23.06334 | 28046 ft | 446 kts | 325° |
| 2026-04-20 03:22 | 40.42674 | 23.01781 | 28050 ft | 447 kts | 325° |
| 2026-04-20 03:23 | 40.47358 | 22.96469 | 28051 ft | 446 kts | 309° |
| 2026-04-20 03:23 | 40.51137 | 22.89932 | 28046 ft | 447 kts | 307° |
| 2026-04-20 03:24 | 40.54865 | 22.83450 | 28045 ft | 447 kts | 307° |
| 2026-04-20 03:24 | 40.58664 | 22.76905 | 28045 ft | 447 kts | 307° |
| 2026-04-20 03:25 | 40.62426 | 22.70438 | 28046 ft | 448 kts | 307° |
| 2026-04-20 03:25 | 40.66216 | 22.63911 | 28042 ft | 448 kts | 307° |
| 2026-04-20 03:26 | 40.70019 | 22.57343 | 28043 ft | 448 kts | 307° |
| 2026-04-20 03:26 | 40.73794 | 22.50809 | 28041 ft | 447 kts | 307° |
| 2026-04-20 03:27 | 40.77565 | 22.44272 | 28050 ft | 447 kts | 307° |
| 2026-04-20 03:27 | 40.81334 | 22.37742 | 28022 ft | 447 kts | 307° |
| 2026-04-20 03:27 | 40.83234 | 22.34448 | 27200 ft | 453 kts | 307° |
| 2026-04-20 03:28 | 40.85133 | 22.31156 | 26377 ft | 449 kts | 307° |
| 2026-04-20 03:28 | 40.87026 | 22.27868 | 25453 ft | 450 kts | 307° |
| 2026-04-20 03:28 | 40.90767 | 22.21359 | 24149 ft | 440 kts | 307° |
| 2026-04-20 03:29 | 40.92603 | 22.18154 | 23469 ft | 435 kts | 307° |
| 2026-04-20 03:29 | 40.94400 | 22.15018 | 22723 ft | 431 kts | 307° |
| 2026-04-20 03:29 | 40.96197 | 22.11879 | 22059 ft | 425 kts | 307° |
| 2026-04-20 03:29 | 40.97971 | 22.08778 | 21426 ft | 419 kts | 307° |
| 2026-04-20 03:30 | 40.99719 | 22.05716 | 20786 ft | 414 kts | 307° |
| 2026-04-20 03:30 | 41.01442 | 22.02694 | 20155 ft | 409 kts | 307° |
| 2026-04-20 03:30 | 41.03147 | 21.99703 | 19519 ft | 404 kts | 307° |
| 2026-04-20 03:30 | 41.04831 | 21.96747 | 18929 ft | 399 kts | 307° |
| 2026-04-20 03:31 | 41.06491 | 21.93831 | 18326 ft | 395 kts | 307° |
| 2026-04-20 03:31 | 41.08142 | 21.90925 | 17635 ft | 392 kts | 306° |
| 2026-04-20 03:31 | 41.09768 | 21.88041 | 16982 ft | 389 kts | 306° |
| 2026-04-20 03:31 | 41.11378 | 21.85170 | 16358 ft | 386 kts | 306° |
| 2026-04-20 03:32 | 41.12971 | 21.82321 | 15753 ft | 383 kts | 306° |
| 2026-04-20 03:32 | 41.14552 | 21.79493 | 15163 ft | 380 kts | 306° |
| 2026-04-20 03:32 | 41.16122 | 21.76685 | 14572 ft | 377 kts | 306° |
| 2026-04-20 03:32 | 41.17678 | 21.73900 | 13987 ft | 374 kts | 306° |
| 2026-04-20 03:33 | 41.19222 | 21.71133 | 13374 ft | 372 kts | 306° |
| 2026-04-20 03:33 | 41.20766 | 21.68366 | 12576 ft | 373 kts | 306° |
| 2026-04-20 03:33 | 41.22323 | 21.65572 | 11965 ft | 370 kts | 306° |
| 2026-04-20 03:33 | 41.23850 | 21.62831 | 11379 ft | 367 kts | 306° |
| 2026-04-20 03:34 | 41.25342 | 21.60151 | 11224 ft | 353 kts | 306° |
| 2026-04-20 03:34 | 41.26777 | 21.57572 | 11050 ft | 341 kts | 306° |
| 2026-04-20 03:34 | 41.28163 | 21.55075 | 10903 ft | 330 kts | 306° |
| 2026-04-20 03:34 | 41.29507 | 21.52655 | 10761 ft | 319 kts | 306° |
| 2026-04-20 03:35 | 41.30832 | 21.50349 | 10635 ft | 310 kts | 312° |
| 2026-04-20 03:35 | 41.32565 | 21.48733 | 10507 ft | 302 kts | 337° |
| 2026-04-20 03:35 | 41.34592 | 21.48179 | 10393 ft | 297 kts | 358° |
| 2026-04-20 03:35 | 41.36614 | 21.48563 | 10269 ft | 292 kts | 15° |
| 2026-04-20 03:36 | 41.38407 | 21.49750 | 10144 ft | 287 kts | 34° |
| 2026-04-20 03:36 | 41.39952 | 21.51327 | 10017 ft | 280 kts | 37° |
| 2026-04-20 03:36 | 41.41461 | 21.52961 | 9739 ft | 280 kts | 37° |
| 2026-04-20 03:36 | 41.42937 | 21.54572 | 9458 ft | 279 kts | 37° |
| 2026-04-20 03:37 | 41.44438 | 21.56203 | 9175 ft | 277 kts | 37° |
| 2026-04-20 03:37 | 41.45931 | 21.57819 | 8902 ft | 276 kts | 37° |
| 2026-04-20 03:37 | 41.47421 | 21.59428 | 8613 ft | 275 kts | 37° |
| 2026-04-20 03:37 | 41.48900 | 21.61018 | 8476 ft | 269 kts | 36° |
| 2026-04-20 03:38 | 41.50343 | 21.62574 | 8332 ft | 264 kts | 37° |
| 2026-04-20 03:38 | 41.51754 | 21.64097 | 8208 ft | 257 kts | 36° |
| 2026-04-20 03:38 | 41.53126 | 21.65569 | 8104 ft | 250 kts | 36° |
| 2026-04-20 03:38 | 41.54464 | 21.67001 | 8014 ft | 243 kts | 36° |
| 2026-04-20 03:39 | 41.55765 | 21.68396 | 7824 ft | 239 kts | 36° |
| 2026-04-20 03:39 | 41.57055 | 21.69783 | 7606 ft | 238 kts | 36° |
| 2026-04-20 03:39 | 41.58340 | 21.71165 | 7384 ft | 237 kts | 36° |
| 2026-04-20 03:39 | 41.59622 | 21.72548 | 7152 ft | 237 kts | 36° |
| 2026-04-20 03:40 | 41.60938 | 21.73861 | 6908 ft | 234 kts | 24° |
| 2026-04-20 03:40 | 41.62485 | 21.74132 | 6686 ft | 223 kts | 343° |
| 2026-04-20 03:40 | 41.63956 | 21.73536 | 6487 ft | 221 kts | 341° |
| 2026-04-20 03:40 | 41.65434 | 21.72945 | 6233 ft | 222 kts | 341° |
| 2026-04-20 03:41 | 41.66915 | 21.72389 | 6014 ft | 220 kts | 342° |
| 2026-04-20 03:41 | 41.68376 | 21.71864 | 5795 ft | 214 kts | 343° |
| 2026-04-20 03:41 | 41.69798 | 21.71364 | 5561 ft | 208 kts | 343° |
| 2026-04-20 03:41 | 41.71166 | 21.70884 | 5321 ft | 198 kts | 343° |
| 2026-04-20 03:42 | 41.72468 | 21.70429 | 5097 ft | 188 kts | 343° |
| 2026-04-20 03:42 | 41.73717 | 21.69991 | 4912 ft | 186 kts | 343° |
| 2026-04-20 03:42 | 41.74550 | 21.69699 | 4790 ft | 187 kts | 343° |
| 2026-04-20 03:42 | 41.75797 | 21.69264 | 4573 ft | 183 kts | 343° |
| 2026-04-20 03:43 | 41.77021 | 21.68837 | 4381 ft | 179 kts | 343° |
| 2026-04-20 03:43 | 41.78227 | 21.68413 | 4222 ft | 181 kts | 343° |
| 2026-04-20 03:43 | 41.79455 | 21.67981 | 4037 ft | 183 kts | 343° |
| 2026-04-20 03:43 | 41.80685 | 21.67553 | 3831 ft | 182 kts | 343° |
| 2026-04-20 03:44 | 41.81898 | 21.67131 | 3683 ft | 178 kts | 344° |
| 2026-04-20 03:44 | 41.83113 | 21.66705 | 3484 ft | 184 kts | 343° |
| 2026-04-20 03:44 | 41.84349 | 21.66272 | 3208 ft | 182 kts | 344° |
| 2026-04-20 03:44 | 41.85537 | 21.65856 | 2940 ft | 175 kts | 345° |
| 2026-04-20 03:45 | 41.86714 | 21.65445 | 2675 ft | 176 kts | 345° |
| 2026-04-20 03:45 | 41.87898 | 21.65031 | 2400 ft | 176 kts | 345° |
| 2026-04-20 03:45 | 41.89077 | 21.64619 | 2146 ft | 175 kts | 345° |
| 2026-04-20 03:45 | 41.90247 | 21.64210 | 1902 ft | 171 kts | 345° |
| 2026-04-20 03:46 | 41.91368 | 21.63818 | 1657 ft | 161 kts | 345° |
| 2026-04-20 03:46 | 41.92421 | 21.63449 | 1420 ft | 152 kts | 345° |
| 2026-04-20 03:46 | 41.93425 | 21.63098 | 1194 ft | 147 kts | 345° |
| 2026-04-20 03:46 | 41.94402 | 21.62758 | 933 ft | 144 kts | 347° |
| 2026-04-20 03:47 | 41.95357 | 21.62460 | 795 ft | 134 kts | 347° |
| 2026-04-20 03:47 | 41.96157 | 21.62208 | 791 ft | 105 kts | 348° |
| 2026-04-20 03:47 | 41.96647 | 21.61989 | 789 ft | 57 kts | 343° |
| 2026-04-20 03:47 | 41.96942 | 21.61874 | 788 ft | 16 kts | 348° |
| 2026-04-20 03:48 | 41.96991 | 21.61987 | 790 ft | 23 kts | 133° |
| 2026-04-20 03:48 | 41.96857 | 21.62157 | 792 ft | 21 kts | 156° |
| 2026-04-20 03:48 | 41.96700 | 21.62221 | 792 ft | 28 kts | 165° |
| 2026-04-20 03:48 | 41.96550 | 21.62274 | 792 ft | 25 kts | 165° |
| 2026-04-20 03:49 | 41.96354 | 21.62345 | 791 ft | 24 kts | 166° |
| 2026-04-20 03:49 | 41.96274 | 21.62374 | 791 ft | 17 kts | 165° |
| 2026-04-20 03:49 | 41.96124 | 21.62417 | 790 ft | 27 kts | 163° |
| 2026-04-20 03:49 | 41.96031 | 21.62459 | 790 ft | 13 kts | 147° |
| 2026-04-20 03:50 | 41.96030 | 21.62586 | 792 ft | 11 kts | 75° |
| 2026-04-20 03:50 | 41.96033 | 21.62598 | 792 ft | 0 kts | 75° |